createdAt,value
2022-11-05T00:00:57.249Z,7.89
2022-11-05T00:01:57.272Z,7.86
2022-11-05T00:02:57.220Z,7.79
2022-11-05T00:03:57.262Z,7.79
2022-11-05T00:04:57.182Z,7.74
2022-11-05T00:05:57.168Z,7.68
2022-11-05T00:06:57.148Z,7.64
2022-11-05T00:07:57.130Z,7.77
2022-11-05T00:08:57.110Z,7.77
2022-11-05T00:09:57.116Z,7.72
2022-11-05T00:10:57.113Z,7.63
2022-11-05T00:11:57.060Z,7.74
2022-11-05T00:12:57.050Z,7.68
2022-11-05T00:13:57.029Z,7.74
2022-11-05T00:14:57.005Z,7.69
2022-11-05T00:15:56.992Z,7.71
2022-11-05T00:16:57.017Z,7.71
2022-11-05T00:17:56.955Z,7.68
2022-11-05T00:18:56.939Z,7.61
2022-11-05T00:19:56.918Z,7.61
2022-11-05T00:20:56.903Z,7.49
2022-11-05T00:21:56.892Z,7.52
2022-11-05T00:22:56.933Z,7.37
2022-11-05T00:23:56.848Z,7.16
2022-11-05T00:24:57.100Z,7.03
2022-11-05T00:25:56.814Z,6.92
2022-11-05T00:26:56.794Z,6.66
2022-11-05T00:27:56.780Z,6.58
2022-11-05T00:28:56.762Z,6.67
2022-11-05T00:29:56.753Z,6.85
2022-11-05T00:30:56.742Z,6.80
2022-11-05T00:31:56.707Z,6.79
2022-11-05T00:32:56.715Z,6.89
2022-11-05T00:33:56.745Z,6.87
2022-11-05T00:34:56.662Z,6.66
2022-11-05T00:35:56.651Z,6.69
2022-11-05T00:36:56.617Z,7.10
2022-11-05T00:37:56.603Z,7.17
2022-11-05T00:38:56.584Z,6.91
2022-11-05T00:39:56.603Z,6.66
2022-11-05T00:40:56.624Z,6.92
2022-11-05T00:41:56.534Z,7.02
2022-11-05T00:42:56.542Z,6.95
2022-11-05T00:43:56.497Z,6.88
2022-11-05T00:44:56.505Z,6.64
2022-11-05T00:45:56.461Z,6.62
2022-11-05T00:46:59.897Z,6.58
2022-11-05T00:47:56.424Z,6.40
2022-11-05T00:48:56.411Z,6.44
2022-11-05T00:49:56.432Z,6.48
2022-11-05T00:50:56.418Z,6.49
2022-11-05T00:51:56.355Z,6.40
2022-11-05T00:52:56.344Z,6.28
2022-11-05T00:53:56.319Z,6.03
2022-11-05T00:54:56.303Z,6.17
2022-11-05T00:55:56.301Z,6.38
2022-11-05T00:57:00.596Z,6.43
2022-11-05T00:57:56.249Z,6.44
2022-11-05T00:58:56.232Z,6.43
2022-11-05T00:59:56.214Z,6.55
2022-11-05T01:00:56.199Z,6.51
2022-11-05T01:01:56.261Z,6.41
2022-11-05T01:02:56.197Z,6.66
2022-11-05T01:03:56.139Z,6.73
2022-11-05T01:04:56.122Z,6.84
2022-11-05T01:05:56.148Z,6.66
2022-11-05T01:06:56.091Z,6.52
2022-11-05T01:07:56.072Z,6.52
2022-11-05T01:08:56.051Z,6.28
2022-11-05T01:09:56.039Z,6.06
2022-11-05T01:10:56.019Z,6.00
2022-11-05T01:11:55.998Z,6.04
2022-11-05T01:12:56.220Z,6.00
2022-11-05T01:13:55.990Z,6.01
2022-11-05T01:14:55.945Z,5.97
2022-11-05T01:15:55.925Z,5.97
2022-11-05T01:16:55.934Z,5.97
2022-11-05T01:17:55.893Z,5.74
2022-11-05T01:18:55.876Z,5.74
2022-11-05T01:19:55.852Z,5.68
2022-11-05T01:20:55.889Z,5.61
2022-11-05T01:21:55.818Z,5.57
2022-11-05T01:22:55.804Z,5.45
2022-11-05T01:23:55.790Z,5.45
2022-11-05T01:24:55.781Z,5.54
2022-11-05T01:25:55.745Z,5.51
2022-11-05T01:26:55.739Z,5.45
2022-11-05T01:27:55.738Z,5.51
2022-11-05T01:28:55.741Z,5.45
2022-11-05T01:29:55.675Z,5.60
2022-11-05T01:30:55.655Z,5.53
2022-11-05T01:31:55.692Z,5.54
2022-11-05T01:32:55.620Z,5.51
2022-11-05T01:33:55.609Z,5.49
2022-11-05T01:34:55.591Z,5.54
2022-11-05T01:35:55.569Z,5.43
2022-11-05T01:36:55.572Z,5.51
2022-11-05T01:37:55.554Z,5.45
2022-11-05T01:38:55.520Z,5.54
2022-11-05T01:39:55.499Z,5.57
2022-11-05T01:40:55.480Z,5.64
2022-11-05T01:41:55.457Z,5.60
2022-11-05T01:42:55.440Z,5.53
2022-11-05T01:43:55.427Z,5.48
2022-11-05T01:44:55.405Z,5.53
2022-11-05T01:45:55.436Z,5.51
2022-11-05T01:46:55.379Z,5.49
2022-11-05T01:47:55.352Z,5.45
2022-11-05T01:49:01.733Z,5.40
2022-11-05T01:49:55.316Z,5.45
2022-11-05T01:50:55.297Z,5.40
2022-11-05T01:51:55.281Z,5.48
2022-11-05T01:52:55.262Z,5.43
2022-11-05T01:53:55.240Z,5.58
2022-11-05T01:54:55.226Z,5.45
2022-11-05T01:55:55.259Z,5.43
2022-11-05T01:56:55.188Z,5.33
2022-11-05T01:57:55.166Z,5.33
2022-11-05T01:58:55.151Z,5.24
2022-11-05T01:59:55.132Z,5.21
2022-11-05T02:00:55.119Z,5.22
2022-11-05T02:01:55.222Z,5.31
2022-11-05T02:02:55.256Z,5.27
2022-11-05T02:03:55.060Z,5.25
2022-11-05T02:04:55.045Z,5.15
2022-11-05T02:05:55.050Z,5.06
2022-11-05T02:06:55.008Z,5.07
2022-11-05T02:07:54.989Z,4.96
2022-11-05T02:08:54.972Z,5.00
2022-11-05T02:09:54.949Z,5.00
2022-11-05T02:10:54.965Z,4.96
2022-11-05T02:11:54.917Z,5.00
2022-11-05T02:12:54.912Z,4.97
2022-11-05T02:13:54.876Z,4.97
2022-11-05T02:14:54.894Z,5.06
2022-11-05T02:15:54.871Z,4.96
2022-11-05T02:16:54.824Z,4.96
2022-11-05T02:17:54.805Z,5.00
2022-11-05T02:18:54.815Z,4.97
2022-11-05T02:19:54.769Z,4.91
2022-11-05T02:20:54.749Z,4.99
2022-11-05T02:21:54.734Z,4.97
2022-11-05T02:22:54.714Z,4.97
2022-11-05T02:23:54.698Z,4.92
2022-11-05T02:24:54.682Z,4.78
2022-11-05T02:25:54.658Z,4.84
2022-11-05T02:26:54.671Z,4.70
2022-11-05T02:27:54.622Z,4.52
2022-11-05T02:28:54.608Z,4.51
2022-11-05T02:29:54.587Z,4.51
2022-11-05T02:30:54.573Z,4.48
2022-11-05T02:31:54.548Z,4.59
2022-11-05T02:32:54.531Z,4.54
2022-11-05T02:33:54.510Z,4.62
2022-11-05T02:34:54.554Z,4.65
2022-11-05T02:35:54.481Z,4.50
2022-11-05T02:36:54.485Z,4.52
2022-11-05T02:37:54.473Z,4.59
2022-11-05T02:38:54.422Z,4.70
2022-11-05T02:39:54.408Z,4.66
2022-11-05T02:40:54.390Z,4.75
2022-11-05T02:41:54.363Z,4.66
2022-11-05T02:42:54.351Z,4.65
2022-11-05T02:43:54.330Z,4.58
2022-11-05T02:44:54.311Z,4.70
2022-11-05T02:45:54.331Z,4.73
2022-11-05T02:46:54.274Z,4.60
2022-11-05T02:47:54.254Z,4.65
2022-11-05T02:48:54.237Z,4.69
2022-11-05T02:49:54.218Z,4.88
2022-11-05T02:50:54.201Z,4.82
2022-11-05T02:51:54.180Z,4.84
2022-11-05T02:52:54.165Z,4.82
2022-11-05T02:53:54.139Z,4.94
2022-11-05T02:54:54.126Z,4.91
2022-11-05T02:55:54.109Z,4.96
2022-11-05T02:56:54.106Z,4.97
2022-11-05T02:57:54.070Z,5.00
2022-11-05T02:58:54.067Z,4.96
2022-11-05T02:59:54.030Z,4.94
2022-11-05T03:00:54.013Z,4.94
2022-11-05T03:01:54.134Z,4.99
2022-11-05T03:02:54.116Z,4.96
2022-11-05T03:03:53.962Z,4.86
2022-11-05T03:04:53.939Z,4.77
2022-11-05T03:05:53.921Z,4.66
2022-11-05T03:06:53.902Z,4.66
2022-11-05T03:07:53.916Z,4.67
2022-11-05T03:08:53.865Z,4.60
2022-11-05T03:09:53.846Z,4.50
2022-11-05T03:10:53.832Z,4.62
2022-11-05T03:11:53.820Z,4.60
2022-11-05T03:12:53.855Z,4.73
2022-11-05T03:13:53.775Z,4.69
2022-11-05T03:14:53.754Z,4.66
2022-11-05T03:15:53.766Z,4.65
2022-11-05T03:16:53.721Z,4.69
2022-11-05T03:17:53.701Z,4.62
2022-11-05T03:18:53.735Z,4.58
2022-11-05T03:19:53.668Z,4.55
2022-11-05T03:20:53.641Z,4.63
2022-11-05T03:21:53.624Z,4.65
2022-11-05T03:22:53.607Z,4.63
2022-11-05T03:23:53.591Z,4.59
2022-11-05T03:24:53.599Z,4.58
2022-11-05T03:25:53.550Z,4.62
2022-11-05T03:26:53.537Z,4.54
2022-11-05T03:27:53.513Z,4.54
2022-11-05T03:28:53.535Z,4.48
2022-11-05T03:29:53.500Z,4.60
2022-11-05T03:30:53.467Z,4.55
2022-11-05T03:31:53.447Z,4.52
2022-11-05T03:32:53.423Z,4.51
2022-11-05T03:33:53.435Z,4.54
2022-11-05T03:34:53.415Z,4.54
2022-11-05T03:35:53.367Z,4.51
2022-11-05T03:36:53.348Z,4.58
2022-11-05T03:37:53.327Z,4.50
2022-11-05T03:38:53.346Z,4.50
2022-11-05T03:39:53.293Z,4.50
2022-11-05T03:40:53.322Z,4.50
2022-11-05T03:41:53.254Z,4.62
2022-11-05T03:42:53.238Z,4.48
2022-11-05T03:43:53.216Z,4.55
2022-11-05T03:44:53.205Z,4.51
2022-11-05T03:45:53.209Z,4.55
2022-11-05T03:46:53.163Z,4.42
2022-11-05T03:47:53.177Z,4.36
2022-11-05T03:48:53.205Z,4.50
2022-11-05T03:49:53.109Z,4.63
2022-11-05T03:50:53.123Z,4.51
2022-11-05T03:51:53.076Z,4.60
2022-11-05T03:52:53.073Z,4.58
2022-11-05T03:53:53.052Z,4.51
2022-11-05T03:54:53.014Z,4.50
2022-11-05T03:55:53.002Z,4.51
2022-11-05T03:56:53.014Z,4.60
2022-11-05T03:57:52.954Z,4.40
2022-11-05T03:58:58.460Z,4.34
2022-11-05T03:59:52.932Z,4.24
2022-11-05T04:00:52.896Z,4.24
2022-11-05T04:01:52.984Z,4.26
2022-11-05T04:02:53.096Z,4.24
2022-11-05T04:03:52.844Z,4.18
2022-11-05T04:04:52.824Z,4.14
2022-11-05T04:05:52.802Z,4.08
2022-11-05T04:06:52.810Z,4.08
2022-11-05T04:07:52.965Z,4.02
2022-11-05T04:08:52.763Z,4.08
2022-11-05T04:09:52.740Z,4.00
2022-11-05T04:10:52.712Z,4.09
2022-11-05T04:11:52.695Z,4.02
2022-11-05T04:12:52.673Z,4.05
2022-11-05T04:13:52.685Z,4.00
2022-11-05T04:14:52.644Z,4.00
2022-11-05T04:15:52.621Z,3.98
2022-11-05T04:16:52.600Z,3.97
2022-11-05T04:17:52.585Z,3.84
2022-11-05T04:18:52.566Z,3.87
2022-11-05T04:19:52.576Z,3.86
2022-11-05T04:20:52.527Z,3.84
2022-11-05T04:21:52.508Z,3.87
2022-11-05T04:22:52.484Z,3.87
2022-11-05T04:23:52.472Z,3.91
2022-11-05T04:24:52.501Z,3.90
2022-11-05T04:25:52.429Z,3.91
2022-11-05T04:26:52.410Z,4.04
2022-11-05T04:27:52.395Z,4.11
2022-11-05T04:28:52.377Z,4.09
2022-11-05T04:29:52.356Z,4.15
2022-11-05T04:30:52.345Z,4.06
2022-11-05T04:31:52.317Z,4.09
2022-11-05T04:32:52.295Z,4.06
2022-11-05T04:33:52.283Z,4.06
2022-11-05T04:34:52.265Z,4.08
2022-11-05T04:35:52.247Z,3.97
2022-11-05T04:36:52.250Z,3.94
2022-11-05T04:37:52.211Z,4.05
2022-11-05T04:38:52.187Z,3.97
2022-11-05T04:39:52.169Z,4.00
2022-11-05T04:40:52.194Z,4.02
2022-11-05T04:41:52.132Z,4.08
2022-11-05T04:42:52.108Z,4.04
2022-11-05T04:43:52.094Z,4.02
2022-11-05T04:44:52.068Z,4.09
2022-11-05T04:45:52.052Z,4.14
2022-11-05T04:46:52.060Z,4.15
2022-11-05T04:47:52.015Z,4.18
2022-11-05T04:48:51.992Z,4.23
2022-11-05T04:49:51.978Z,4.30
2022-11-05T04:50:51.958Z,4.14
2022-11-05T04:51:51.981Z,4.29
2022-11-05T04:52:51.927Z,4.24
2022-11-05T04:53:51.947Z,4.29
2022-11-05T04:54:51.887Z,4.18
2022-11-05T04:55:51.867Z,4.30
2022-11-05T04:56:51.871Z,4.29
2022-11-05T04:57:51.827Z,4.18
2022-11-05T04:58:51.807Z,4.26
2022-11-05T04:59:51.824Z,4.30
2022-11-05T05:00:51.827Z,4.20
2022-11-05T05:01:51.818Z,4.22
2022-11-05T05:02:51.735Z,4.29
2022-11-05T05:03:51.711Z,4.30
2022-11-05T05:04:51.693Z,4.40
2022-11-05T05:05:53.804Z,4.33
2022-11-05T05:06:51.655Z,4.36
2022-11-05T05:07:51.640Z,4.23
2022-11-05T05:08:51.619Z,4.27
2022-11-05T05:09:51.600Z,4.30
2022-11-05T05:10:51.606Z,4.29
2022-11-05T05:11:51.575Z,4.41
2022-11-05T05:12:51.542Z,4.37
2022-11-05T05:13:51.526Z,4.40
2022-11-05T05:14:51.525Z,4.32
2022-11-05T05:15:51.521Z,4.26
2022-11-05T05:16:51.470Z,4.18
2022-11-05T05:17:51.445Z,4.09
2022-11-05T05:18:51.430Z,3.96
2022-11-05T05:19:51.445Z,3.98
2022-11-05T05:20:51.388Z,4.02
2022-11-05T05:21:51.380Z,4.00
2022-11-05T05:22:51.394Z,4.04
2022-11-05T05:23:51.343Z,4.05
2022-11-05T05:24:52.959Z,3.86
2022-11-05T05:25:51.300Z,3.88
2022-11-05T05:26:51.275Z,3.91
2022-11-05T05:27:51.265Z,3.90
2022-11-05T05:28:51.269Z,3.88
2022-11-05T05:29:51.224Z,3.90
2022-11-05T05:30:56.156Z,3.91
2022-11-05T05:31:51.185Z,3.97
2022-11-05T05:32:51.163Z,3.97
2022-11-05T05:33:51.178Z,3.97
2022-11-05T05:34:51.130Z,3.94
2022-11-05T05:35:51.110Z,3.93
2022-11-05T05:36:51.089Z,3.80
2022-11-05T05:37:51.097Z,3.68
2022-11-05T05:38:51.086Z,3.76
2022-11-05T05:39:51.032Z,3.80
2022-11-05T05:40:51.017Z,3.78
2022-11-05T05:41:51.049Z,3.84
2022-11-05T05:42:50.991Z,3.90
2022-11-05T05:43:50.965Z,3.96
2022-11-05T05:44:50.936Z,4.00
2022-11-05T05:45:50.917Z,4.02
2022-11-05T05:46:50.907Z,3.98
2022-11-05T05:47:50.883Z,4.00
2022-11-05T05:48:50.858Z,3.98
2022-11-05T05:49:50.865Z,4.12
2022-11-05T05:50:50.824Z,3.94
2022-11-05T05:51:50.810Z,3.84
2022-11-05T05:52:50.833Z,3.65
2022-11-05T05:53:50.770Z,3.69
2022-11-05T05:54:50.748Z,3.55
2022-11-05T05:55:50.741Z,3.55
2022-11-05T05:56:50.704Z,3.60
2022-11-05T05:57:50.690Z,3.73
2022-11-05T05:58:50.695Z,3.87
2022-11-05T05:59:50.651Z,3.80
2022-11-05T06:00:50.634Z,3.75
2022-11-05T06:01:50.713Z,3.72
2022-11-05T06:02:50.671Z,3.83
2022-11-05T06:03:50.647Z,3.86
2022-11-05T06:04:50.552Z,3.86
2022-11-05T06:05:50.537Z,3.87
2022-11-05T06:06:50.516Z,3.90
2022-11-05T06:07:50.500Z,3.94
2022-11-05T06:08:50.477Z,3.93
2022-11-05T06:09:50.493Z,4.05
2022-11-05T06:10:50.536Z,4.08
2022-11-05T06:11:50.422Z,4.02
2022-11-05T06:12:50.403Z,4.02
2022-11-05T06:13:50.383Z,4.16
2022-11-05T06:14:50.409Z,4.12
2022-11-05T06:15:50.351Z,4.12
2022-11-05T06:16:50.326Z,4.08
2022-11-05T06:17:50.306Z,4.11
2022-11-05T06:18:50.284Z,4.14
2022-11-05T06:19:50.296Z,4.16
2022-11-05T06:20:50.253Z,4.27
2022-11-05T06:21:50.235Z,4.14
2022-11-05T06:22:50.212Z,4.08
2022-11-05T06:23:50.193Z,4.14
2022-11-05T06:24:50.204Z,4.16
2022-11-05T06:25:50.156Z,4.24
2022-11-05T06:26:50.137Z,4.30
2022-11-05T06:27:50.119Z,4.44
2022-11-05T06:28:50.102Z,4.34
2022-11-05T06:29:50.110Z,4.34
2022-11-05T06:30:50.068Z,4.36
2022-11-05T06:31:50.049Z,4.40
2022-11-05T06:32:50.020Z,4.33
2022-11-05T06:33:50.007Z,4.37
2022-11-05T06:34:50.012Z,4.34
2022-11-05T06:35:49.967Z,4.45
2022-11-05T06:36:49.949Z,4.48
2022-11-05T06:37:49.936Z,4.51
2022-11-05T06:38:49.962Z,4.48
2022-11-05T06:39:49.928Z,4.47
2022-11-05T06:40:49.874Z,4.44
2022-11-05T06:42:16.635Z,4.37
2022-11-05T06:42:49.834Z,4.36
2022-11-05T06:43:49.833Z,4.41
2022-11-05T06:44:49.828Z,4.44
2022-11-05T06:45:49.778Z,4.41
2022-11-05T06:46:49.760Z,4.48
2022-11-05T06:47:49.745Z,4.52
2022-11-05T06:48:49.774Z,4.51
2022-11-05T06:49:49.720Z,4.47
2022-11-05T06:50:49.716Z,4.50
2022-11-05T06:51:49.668Z,4.54
2022-11-05T06:52:49.646Z,4.55
2022-11-05T06:53:49.642Z,4.67
2022-11-05T06:54:49.636Z,4.65
2022-11-05T06:55:49.600Z,4.55
2022-11-05T06:56:49.570Z,4.54
2022-11-05T06:57:49.737Z,4.51
2022-11-05T06:58:49.536Z,4.51
2022-11-05T06:59:49.566Z,4.54
2022-11-05T07:00:49.517Z,4.54
2022-11-05T07:01:49.567Z,4.59
2022-11-05T07:02:49.456Z,4.52
2022-11-05T07:03:49.441Z,4.59
2022-11-05T07:04:49.419Z,4.75
2022-11-05T07:05:49.414Z,4.75
2022-11-05T07:06:49.413Z,4.73
2022-11-05T07:07:49.390Z,4.70
2022-11-05T07:08:49.362Z,4.78
2022-11-05T07:09:49.328Z,4.86
2022-11-05T07:10:49.308Z,4.96
2022-11-05T07:11:49.288Z,4.94
2022-11-05T07:12:49.299Z,4.99
2022-11-05T07:13:49.285Z,4.97
2022-11-05T07:14:49.255Z,5.07
2022-11-05T07:15:49.217Z,4.96
2022-11-05T07:16:49.195Z,4.96
2022-11-05T07:17:49.177Z,4.92
2022-11-05T07:18:49.158Z,5.07
2022-11-05T07:19:49.144Z,5.09
2022-11-05T07:20:49.157Z,4.96
2022-11-05T07:21:49.106Z,4.94
2022-11-05T07:22:49.082Z,5.07
2022-11-05T07:23:49.071Z,4.99
2022-11-05T07:24:49.071Z,5.04
2022-11-05T07:25:49.035Z,5.09
2022-11-05T07:26:49.008Z,5.07
2022-11-05T07:27:48.998Z,5.15
2022-11-05T07:28:48.995Z,5.15
2022-11-05T07:29:48.953Z,5.21
2022-11-05T07:30:48.932Z,5.33
2022-11-05T07:31:48.916Z,5.21
2022-11-05T07:32:48.893Z,5.22
2022-11-05T07:33:48.875Z,5.24
2022-11-05T07:34:48.882Z,5.31
2022-11-05T07:35:48.841Z,5.33
2022-11-05T07:36:48.819Z,5.36
2022-11-05T07:37:48.805Z,5.36
2022-11-05T07:38:48.779Z,5.35
2022-11-05T07:39:48.833Z,5.43
2022-11-05T07:40:48.744Z,5.36
2022-11-05T07:41:48.732Z,5.49
2022-11-05T07:42:48.710Z,5.36
2022-11-05T07:43:48.695Z,5.39
2022-11-05T07:44:48.671Z,5.48
2022-11-05T07:45:48.661Z,5.48
2022-11-05T07:46:48.638Z,5.35
2022-11-05T07:47:48.616Z,5.53
2022-11-05T07:48:48.602Z,5.54
2022-11-05T07:49:48.584Z,5.54
2022-11-05T07:50:48.594Z,5.56
2022-11-05T07:51:48.546Z,5.61
2022-11-05T07:52:48.529Z,5.68
2022-11-05T07:53:48.505Z,5.64
2022-11-05T07:54:48.486Z,5.51
2022-11-05T07:55:48.498Z,5.42
2022-11-05T07:56:48.545Z,5.40
2022-11-05T07:57:48.466Z,5.64
2022-11-05T07:58:48.413Z,5.56
2022-11-05T07:59:48.399Z,5.57
2022-11-05T08:00:48.613Z,5.46
2022-11-05T08:01:48.511Z,5.40
2022-11-05T08:02:48.513Z,5.49
2022-11-05T08:03:48.370Z,5.38
2022-11-05T08:04:48.303Z,5.31
2022-11-05T08:05:48.304Z,5.30
2022-11-05T08:06:48.296Z,5.28
2022-11-05T08:07:48.254Z,5.24
2022-11-05T08:08:48.247Z,5.30
2022-11-05T08:09:48.215Z,5.35
2022-11-05T08:10:48.204Z,5.33
2022-11-05T08:11:49.554Z,5.48
2022-11-05T08:12:48.167Z,5.45
2022-11-05T08:13:48.140Z,5.39
2022-11-05T08:14:48.126Z,5.42
2022-11-05T08:15:48.111Z,5.48
2022-11-05T08:16:48.121Z,5.35
2022-11-05T08:17:48.075Z,5.45
2022-11-05T08:18:48.054Z,5.45
2022-11-05T08:19:48.032Z,5.39
2022-11-05T08:20:48.015Z,5.43
2022-11-05T08:21:47.999Z,5.43
2022-11-05T08:22:47.985Z,5.58
2022-11-05T08:23:47.961Z,5.64
2022-11-05T08:24:47.949Z,5.85
2022-11-05T08:25:47.926Z,5.81
2022-11-05T08:26:47.911Z,5.76
2022-11-05T08:27:47.955Z,5.76
2022-11-05T08:28:47.870Z,5.75
2022-11-05T08:29:47.855Z,5.60
2022-11-05T08:30:47.839Z,5.61
2022-11-05T08:31:47.836Z,5.63
2022-11-05T08:32:47.799Z,5.67
2022-11-05T08:33:47.779Z,5.71
2022-11-05T08:34:47.767Z,5.75
2022-11-05T08:35:47.740Z,5.85
2022-11-05T08:36:47.729Z,5.86
2022-11-05T08:37:47.717Z,5.96
2022-11-05T08:38:47.717Z,5.96
2022-11-05T08:39:47.670Z,5.94
2022-11-05T08:40:47.684Z,5.99
2022-11-05T08:41:47.644Z,6.00
2022-11-05T08:42:47.620Z,5.93
2022-11-05T08:43:47.599Z,5.85
2022-11-05T08:44:47.590Z,5.89
2022-11-05T08:45:47.575Z,5.94
2022-11-05T08:46:47.544Z,5.81
2022-11-05T08:47:47.527Z,5.91
2022-11-05T08:48:47.512Z,5.94
2022-11-05T08:49:47.520Z,5.93
2022-11-05T08:50:47.483Z,6.01
2022-11-05T08:51:47.454Z,5.91
2022-11-05T08:52:47.441Z,6.00
2022-11-05T08:53:47.421Z,5.78
2022-11-05T08:54:47.404Z,6.04
2022-11-05T08:55:47.384Z,6.04
2022-11-05T08:56:47.394Z,6.06
2022-11-05T08:57:47.345Z,6.09
2022-11-05T08:58:47.330Z,6.09
2022-11-05T08:59:47.336Z,6.31
2022-11-05T09:00:47.352Z,6.37
2022-11-05T09:01:47.483Z,6.34
2022-11-05T09:02:47.258Z,6.31
2022-11-05T09:03:47.240Z,6.40
2022-11-05T09:04:47.227Z,6.49
2022-11-05T09:05:47.205Z,6.55
2022-11-05T09:06:47.189Z,6.51
2022-11-05T09:07:47.223Z,6.41
2022-11-05T09:08:47.153Z,6.51
2022-11-05T09:09:47.139Z,6.54
2022-11-05T09:10:47.144Z,6.55
2022-11-05T09:12:11.194Z,6.55
2022-11-05T09:12:47.088Z,6.51
2022-11-05T09:13:47.118Z,6.64
2022-11-05T09:14:47.056Z,6.59
2022-11-05T09:15:47.028Z,6.48
2022-11-05T09:16:47.027Z,6.66
2022-11-05T09:17:46.990Z,6.74
2022-11-05T09:18:46.982Z,6.52
2022-11-05T09:19:47.005Z,6.49
2022-11-05T09:20:46.946Z,6.58
2022-11-05T09:21:46.933Z,6.54
2022-11-05T09:22:46.911Z,6.66
2022-11-05T09:23:46.885Z,6.64
2022-11-05T09:24:46.871Z,6.69
2022-11-05T09:25:46.867Z,6.74
2022-11-05T09:26:46.839Z,6.69
2022-11-05T09:27:46.820Z,6.79
2022-11-05T09:28:46.804Z,6.98
2022-11-05T09:29:46.780Z,7.06
2022-11-05T09:30:46.832Z,7.12
2022-11-05T09:31:46.745Z,7.07
2022-11-05T09:32:46.740Z,7.06
2022-11-05T09:33:46.709Z,7.12
2022-11-05T09:34:46.714Z,7.25
2022-11-05T09:35:46.682Z,7.23
2022-11-05T09:36:46.670Z,7.27
2022-11-05T09:37:46.640Z,7.30
2022-11-05T09:38:46.625Z,7.27
2022-11-05T09:39:46.604Z,7.27
2022-11-05T09:40:46.592Z,7.21
2022-11-05T09:41:46.574Z,7.16
2022-11-05T09:42:46.573Z,7.21
2022-11-05T09:43:46.539Z,7.21
2022-11-05T09:44:46.529Z,7.21
2022-11-05T09:45:46.509Z,7.31
2022-11-05T09:46:46.541Z,7.39
2022-11-05T09:47:46.482Z,7.39
2022-11-05T09:48:46.453Z,7.46
2022-11-05T09:49:46.449Z,7.49
2022-11-05T09:50:46.419Z,7.49
2022-11-05T09:51:46.395Z,7.60
2022-11-05T09:52:46.417Z,7.71
2022-11-05T09:53:46.371Z,7.64
2022-11-05T09:54:46.349Z,7.68
2022-11-05T09:55:46.330Z,7.57
2022-11-05T09:56:46.321Z,7.61
2022-11-05T09:57:46.327Z,7.63
2022-11-05T09:58:46.291Z,7.79
2022-11-05T09:59:46.260Z,7.63
2022-11-05T10:00:46.266Z,7.83
2022-11-05T10:01:46.375Z,7.87
2022-11-05T10:02:46.241Z,7.90
2022-11-05T10:03:46.194Z,8.07
2022-11-05T10:04:46.175Z,8.08
2022-11-05T10:05:46.200Z,8.10
2022-11-05T10:06:46.153Z,8.04
2022-11-05T10:07:46.121Z,8.19
2022-11-05T10:08:46.107Z,8.16
2022-11-05T10:09:46.112Z,8.04
2022-11-05T10:10:46.072Z,8.11
2022-11-05T10:11:46.064Z,8.05
2022-11-05T10:12:46.063Z,8.11
2022-11-05T10:13:46.054Z,8.18
2022-11-05T10:14:46.003Z,8.16
2022-11-05T10:15:45.986Z,8.05
2022-11-05T10:16:45.979Z,8.15
2022-11-05T10:17:45.947Z,8.07
2022-11-05T10:18:45.940Z,8.16
2022-11-05T10:19:45.932Z,8.19
2022-11-05T10:20:45.935Z,8.16
2022-11-05T10:22:05.510Z,8.23
2022-11-05T10:22:49.521Z,8.29
2022-11-05T10:23:45.928Z,8.38
2022-11-05T10:24:45.831Z,8.29
2022-11-05T10:25:45.867Z,8.30
2022-11-05T10:26:45.796Z,8.38
2022-11-05T10:27:45.782Z,8.43
2022-11-05T10:28:45.800Z,8.43
2022-11-05T10:29:45.766Z,8.50
2022-11-05T10:30:45.730Z,8.48
2022-11-05T10:31:45.711Z,8.56
2022-11-05T10:32:45.697Z,8.61
2022-11-05T10:33:45.702Z,8.66
2022-11-05T10:34:45.685Z,8.61
2022-11-05T10:35:45.674Z,8.61
2022-11-05T10:36:45.629Z,8.70
2022-11-05T10:37:45.611Z,8.74
2022-11-05T10:38:45.735Z,8.74
2022-11-05T10:39:45.602Z,8.73
2022-11-05T10:40:45.610Z,8.79
2022-11-05T10:41:45.540Z,8.86
2022-11-05T10:42:45.525Z,8.92
2022-11-05T10:43:45.506Z,8.92
2022-11-05T10:44:45.492Z,8.95
2022-11-05T10:45:45.473Z,8.95
2022-11-05T10:46:45.500Z,8.87
2022-11-05T10:47:45.449Z,8.95
2022-11-05T10:48:45.434Z,8.91
2022-11-05T10:49:45.412Z,8.99
2022-11-05T10:50:45.422Z,9.04
2022-11-05T10:51:45.373Z,9.01
2022-11-05T10:52:45.379Z,8.95
2022-11-05T10:53:45.347Z,8.94
2022-11-05T10:54:45.351Z,9.11
2022-11-05T10:55:45.304Z,9.05
2022-11-05T10:56:45.311Z,8.84
2022-11-05T10:57:45.299Z,8.91
2022-11-05T10:58:45.265Z,9.05
2022-11-05T10:59:45.238Z,9.04
2022-11-05T11:00:45.307Z,9.17
2022-11-05T11:01:45.363Z,9.11
2022-11-05T11:02:45.189Z,9.13
2022-11-05T11:03:45.169Z,9.20
2022-11-05T11:04:45.153Z,9.23
2022-11-05T11:05:45.162Z,9.23
2022-11-05T11:06:45.120Z,9.18
2022-11-05T11:07:45.102Z,9.20
2022-11-05T11:08:45.089Z,9.31
2022-11-05T11:09:45.067Z,9.23
2022-11-05T11:10:45.054Z,9.20
2022-11-05T11:11:45.056Z,9.20
2022-11-05T11:12:45.019Z,9.21
2022-11-05T11:13:45.032Z,9.18
2022-11-05T11:14:44.985Z,9.24
2022-11-05T11:15:44.993Z,9.18
2022-11-05T11:16:44.989Z,9.24
2022-11-05T11:17:45.038Z,9.24
2022-11-05T11:18:44.920Z,9.39
2022-11-05T11:19:44.900Z,9.39
2022-11-05T11:20:44.992Z,9.33
2022-11-05T11:21:44.910Z,9.35
2022-11-05T11:22:44.851Z,9.40
2022-11-05T11:23:44.834Z,9.32
2022-11-05T11:24:44.824Z,9.33
2022-11-05T11:25:44.841Z,9.36
2022-11-05T11:26:44.789Z,9.38
2022-11-05T11:27:44.769Z,9.35
2022-11-05T11:28:44.788Z,9.46
2022-11-05T11:29:49.088Z,9.38
2022-11-05T11:30:44.773Z,9.35
2022-11-05T11:31:44.701Z,9.51
2022-11-05T11:32:44.698Z,9.50
2022-11-05T11:33:44.680Z,9.47
2022-11-05T11:34:44.657Z,9.58
2022-11-05T11:35:44.646Z,9.66
2022-11-05T11:36:44.680Z,9.71
2022-11-05T11:37:44.605Z,9.71
2022-11-05T11:38:44.585Z,9.66
2022-11-05T11:39:44.570Z,9.69
2022-11-05T11:40:44.555Z,9.76
2022-11-05T11:41:44.540Z,9.72
2022-11-05T11:42:44.529Z,9.86
2022-11-05T11:43:45.235Z,9.76
2022-11-05T11:44:44.487Z,9.83
2022-11-05T11:45:44.472Z,9.97
2022-11-05T11:46:44.466Z,9.87
2022-11-05T11:47:44.445Z,9.91
2022-11-05T11:48:44.625Z,9.94
2022-11-05T11:49:44.407Z,10.05
2022-11-05T11:50:44.390Z,9.96
2022-11-05T11:51:49.499Z,10.04
2022-11-05T11:52:44.366Z,9.94
2022-11-05T11:53:44.341Z,9.99
2022-11-05T11:54:44.332Z,10.09
2022-11-05T11:55:44.315Z,10.09
2022-11-05T11:56:44.292Z,10.09
2022-11-05T11:57:44.274Z,10.15
2022-11-05T11:58:44.333Z,10.23
2022-11-05T12:00:07.861Z,10.29
2022-11-05T12:00:44.229Z,10.29
2022-11-05T12:01:44.284Z,10.42
2022-11-05T12:02:44.251Z,10.33
2022-11-05T12:03:44.181Z,10.42
2022-11-05T12:04:44.213Z,10.47
2022-11-05T12:05:44.146Z,10.42
2022-11-05T12:06:44.140Z,10.52
2022-11-05T12:07:44.157Z,10.60
2022-11-05T12:08:45.767Z,10.53
2022-11-05T12:09:44.080Z,10.61
2022-11-05T12:10:44.077Z,10.74
2022-11-05T12:11:44.048Z,10.68
2022-11-05T12:12:44.136Z,10.74
2022-11-05T12:13:44.024Z,10.89
2022-11-05T12:14:46.611Z,10.92
2022-11-05T12:15:43.983Z,10.86
2022-11-05T12:16:43.986Z,10.84
2022-11-05T12:17:43.956Z,10.84
2022-11-05T12:18:43.948Z,10.84
2022-11-05T12:19:43.925Z,10.84
2022-11-05T12:20:45.425Z,10.82
2022-11-05T12:21:59.190Z,10.88
2022-11-05T12:22:43.880Z,10.85
2022-11-05T12:23:43.901Z,10.85
2022-11-05T12:24:43.851Z,10.89
2022-11-05T12:25:43.835Z,10.84
2022-11-05T12:26:43.815Z,10.96
2022-11-05T12:27:43.800Z,10.84
2022-11-05T12:29:12.066Z,10.86
2022-11-05T12:29:43.768Z,10.81
2022-11-05T12:30:43.750Z,10.79
2022-11-05T12:31:43.736Z,10.70
2022-11-05T12:32:43.767Z,10.78
2022-11-05T12:33:43.703Z,10.84
2022-11-05T12:34:43.713Z,10.81
2022-11-05T12:35:48.096Z,10.92
2022-11-05T12:36:43.654Z,10.96
2022-11-05T12:37:43.664Z,10.97
2022-11-05T12:38:43.623Z,10.88
2022-11-05T12:39:43.664Z,11.00
2022-11-05T12:40:43.595Z,11.00
2022-11-05T12:41:43.579Z,11.07
2022-11-05T12:42:43.561Z,11.03
2022-11-05T12:43:43.546Z,10.96
2022-11-05T12:44:43.530Z,10.99
2022-11-05T12:45:43.542Z,10.94
2022-11-05T12:46:43.499Z,11.03
2022-11-05T12:47:43.486Z,10.94
2022-11-05T12:48:43.467Z,10.86
2022-11-05T12:49:43.475Z,10.99
2022-11-05T12:50:43.471Z,11.14
2022-11-05T12:51:43.423Z,11.14
2022-11-05T12:52:43.429Z,11.03
2022-11-05T12:53:43.393Z,11.06
2022-11-05T12:54:43.377Z,11.06
2022-11-05T12:55:48.310Z,11.09
2022-11-05T12:56:43.342Z,11.21
2022-11-05T12:57:43.329Z,11.27
2022-11-05T12:58:43.311Z,11.25
2022-11-05T12:59:43.308Z,11.21
2022-11-05T13:00:43.311Z,11.09
2022-11-05T13:01:43.397Z,11.00
2022-11-05T13:02:43.387Z,11.03
2022-11-05T13:03:43.276Z,10.82
2022-11-05T13:04:43.307Z,10.86
2022-11-05T13:05:43.222Z,10.79
2022-11-05T13:06:43.185Z,10.74
2022-11-05T13:07:43.178Z,10.81
2022-11-05T13:08:43.179Z,10.78
2022-11-05T13:09:43.215Z,10.71
2022-11-05T13:10:43.124Z,10.85
2022-11-05T13:11:43.127Z,10.85
2022-11-05T13:12:43.094Z,10.79
2022-11-05T13:13:43.139Z,10.81
2022-11-05T13:14:43.086Z,10.86
2022-11-05T13:15:43.050Z,10.86